createdAt,value
2018-05-13T00:02:02.698Z,97368.19
2018-05-13T00:04:29.785Z,97369.55
2018-05-13T00:06:56.861Z,97370.16
2018-05-13T00:09:23.949Z,97366.74
2018-05-13T00:11:51.074Z,97366.53
2018-05-13T00:14:18.144Z,97373.99
2018-05-13T00:16:45.274Z,97379.91
2018-05-13T00:19:12.354Z,97373.26
2018-05-13T00:21:39.521Z,97370.64
2018-05-13T00:24:06.620Z,97365.15
2018-05-13T00:26:33.715Z,97364.55
2018-05-13T00:29:00.954Z,97373.13
2018-05-13T00:31:28.010Z,97375.55
2018-05-13T00:33:55.072Z,97371.48
2018-05-13T00:36:22.170Z,97373.08
2018-05-13T00:38:49.320Z,97375.21
2018-05-13T00:41:16.378Z,97375.58
2018-05-13T00:43:43.493Z,97373.67
2018-05-13T00:46:10.789Z,97371.87
2018-05-13T00:48:37.952Z,97375.66
2018-05-13T00:51:05.305Z,97371.50
2018-05-13T00:53:32.406Z,97365.81
2018-05-13T00:55:59.468Z,97369.98
2018-05-13T00:58:26.551Z,97367.57
2018-05-13T01:00:53.633Z,97368.52
2018-05-13T01:03:20.789Z,97367.57
2018-05-13T01:05:48.099Z,97375.92
2018-05-13T01:08:15.478Z,97371.55
2018-05-13T01:10:42.532Z,97369.03
2018-05-13T01:13:09.682Z,97363.63
2018-05-13T01:15:37.043Z,97364.96
2018-05-13T01:18:04.128Z,97368.81
2018-05-13T01:20:31.207Z,97368.14
2018-05-13T01:22:58.404Z,97371.29
2018-05-13T01:25:25.506Z,97367.59
2018-05-13T01:27:52.679Z,97368.59
2018-05-13T01:30:19.781Z,97373.98
2018-05-13T01:32:47.193Z,97378.58
2018-05-13T01:35:14.279Z,97380.38
2018-05-13T01:37:41.433Z,97396.68
2018-05-13T01:40:08.479Z,97398.46
2018-05-13T01:42:35.844Z,97411.16
2018-05-13T01:45:02.926Z,97416.25
2018-05-13T01:47:29.951Z,97416.38
2018-05-13T01:49:56.993Z,97416.11
2018-05-13T01:52:24.223Z,97430.19
2018-05-13T01:54:51.366Z,97430.88
2018-05-13T01:57:18.403Z,97422.53
2018-05-13T01:59:45.431Z,97424.86
2018-05-13T02:02:12.492Z,97425.79
2018-05-13T02:04:39.534Z,97417.19
2018-05-13T02:07:06.913Z,97422.84
2018-05-13T02:09:33.986Z,97418.23
2018-05-13T02:12:01.168Z,97422.83
2018-05-13T02:14:29.900Z,97418.31
2018-05-13T02:16:56.986Z,97417.13
2018-05-13T02:19:24.008Z,97417.52
2018-05-13T02:21:51.039Z,97413.47
2018-05-13T02:24:18.067Z,97417.70
2018-05-13T02:26:45.091Z,97412.56
2018-05-13T02:29:12.267Z,97413.14
2018-05-13T02:31:39.400Z,97413.74
2018-05-13T02:34:06.395Z,97420.33
2018-05-13T02:36:33.445Z,97409.73
2018-05-13T02:39:00.480Z,97407.16
2018-05-13T02:41:27.643Z,97407.84
2018-05-13T02:43:54.696Z,97411.13
2018-05-13T02:46:21.837Z,97406.21
2018-05-13T02:48:49.009Z,97403.73
2018-05-13T02:51:16.034Z,97408.66
2018-05-13T02:53:43.090Z,97406.28
2018-05-13T02:56:10.360Z,97409.77
2018-05-13T02:58:37.582Z,97405.39
2018-05-13T03:01:04.751Z,97401.67
2018-05-13T03:03:31.821Z,97403.47
2018-05-13T03:05:58.845Z,97400.83
2018-05-13T03:08:25.862Z,97402.34
2018-05-13T03:10:52.987Z,97402.09
2018-05-13T03:13:20.037Z,97400.08
2018-05-13T03:15:47.160Z,97406.50
2018-05-13T03:18:14.411Z,97404.44
2018-05-13T03:20:41.451Z,97403.41
2018-05-13T03:23:08.564Z,97400.17
2018-05-13T03:25:35.611Z,97402.53
2018-05-13T03:28:02.687Z,97401.65
2018-05-13T03:30:29.843Z,97406.64
2018-05-13T03:32:56.870Z,97404.14
2018-05-13T03:35:23.901Z,97406.22
2018-05-13T03:37:50.931Z,97405.41
2018-05-13T03:40:17.962Z,97408.73
2018-05-13T03:42:44.975Z,97411.48
2018-05-13T03:45:12.105Z,97411.58
2018-05-13T03:47:39.145Z,97415.83
2018-05-13T03:50:06.183Z,97415.59
2018-05-13T03:52:33.196Z,97416.39
2018-05-13T03:55:00.245Z,97428.38
2018-05-13T03:57:27.271Z,97429.31
2018-05-13T03:59:54.425Z,97428.75
2018-05-13T04:02:21.466Z,97435.05
2018-05-13T04:04:48.585Z,97432.48
2018-05-13T04:07:15.655Z,97429.45
2018-05-13T04:09:48.420Z,97431.86
2018-05-13T04:12:22.455Z,97432.92
2018-05-13T04:14:55.561Z,97433.92
2018-05-13T04:17:22.578Z,97436.89
2018-05-13T04:19:49.620Z,97441.62
2018-05-13T04:22:16.636Z,97436.89
2018-05-13T04:24:43.760Z,97440.81
2018-05-13T04:27:10.810Z,97435.72
2018-05-13T04:29:37.867Z,97441.04
2018-05-13T04:32:04.882Z,97456.64
2018-05-13T04:34:32.002Z,97459.00
2018-05-13T04:36:59.164Z,97454.34
2018-05-13T04:39:26.190Z,97462.20
2018-05-13T04:41:53.381Z,97465.19
2018-05-13T04:44:20.580Z,97464.65
2018-05-13T04:46:47.616Z,97470.61
2018-05-13T04:49:14.761Z,97464.62
2018-05-13T04:51:41.810Z,97472.22
2018-05-13T04:54:09.029Z,97473.48
2018-05-13T04:56:36.295Z,97473.48
2018-05-13T04:59:03.332Z,97475.03
2018-05-13T05:01:30.487Z,97474.41
2018-05-13T05:03:57.577Z,97474.14
2018-05-13T05:06:24.660Z,97476.00
2018-05-13T05:08:51.862Z,97480.25
2018-05-13T05:11:18.906Z,97476.44
2018-05-13T05:13:45.931Z,97469.47
2018-05-13T05:16:13.103Z,97470.32
2018-05-13T05:18:40.176Z,97469.98
2018-05-13T05:21:07.418Z,97469.16
2018-05-13T05:23:34.522Z,97465.69
2018-05-13T05:26:01.661Z,97473.60
2018-05-13T05:28:28.735Z,97478.49
2018-05-13T05:30:55.766Z,97484.80
2018-05-13T05:33:22.836Z,97492.23
2018-05-13T05:35:50.073Z,97482.41
2018-05-13T05:38:17.135Z,97491.11
2018-05-13T05:40:44.380Z,97488.39
2018-05-13T05:43:11.404Z,97492.08
2018-05-13T05:45:38.637Z,97490.50
2018-05-13T05:48:05.715Z,97498.63
2018-05-13T05:50:32.767Z,97493.58
2018-05-13T05:52:59.792Z,97495.48
2018-05-13T05:55:26.861Z,97499.63
2018-05-13T05:57:53.979Z,97490.96
2018-05-13T06:00:21.463Z,97486.84
2018-05-13T06:02:48.511Z,97491.55
2018-05-13T06:05:15.672Z,97493.21
2018-05-13T06:07:42.772Z,97491.97
2018-05-13T06:10:09.859Z,97497.56
2018-05-13T06:12:36.962Z,97491.57
2018-05-13T06:15:04.022Z,97488.53
2018-05-13T06:17:31.191Z,97493.45
2018-05-13T06:19:58.358Z,97491.36
2018-05-13T06:22:25.447Z,97492.61
2018-05-13T06:24:52.520Z,97491.84
2018-05-13T06:27:19.641Z,97494.41
2018-05-13T06:29:46.718Z,97485.45
2018-05-13T06:32:13.802Z,97479.72
2018-05-13T06:34:41.047Z,97482.55
2018-05-13T06:37:08.210Z,97478.73
2018-05-13T06:39:35.277Z,97478.28
2018-05-13T06:42:02.341Z,97476.81
2018-05-13T06:44:30.406Z,97483.77
2018-05-13T06:46:57.456Z,97481.63
2018-05-13T06:49:24.674Z,97481.19
2018-05-13T06:51:51.817Z,97482.38
2018-05-13T06:54:19.033Z,97474.84
2018-05-13T06:56:46.152Z,97468.18
2018-05-13T06:59:13.217Z,97457.06
2018-05-13T07:01:40.655Z,97462.32
2018-05-13T07:04:07.771Z,97457.59
2018-05-13T07:06:34.874Z,97453.91
2018-05-13T07:09:02.021Z,97458.38
2018-05-13T07:11:29.211Z,97453.66
2018-05-13T07:13:56.337Z,97455.42
2018-05-13T07:16:23.481Z,97457.02
2018-05-13T07:18:50.476Z,97460.11
2018-05-13T07:21:17.823Z,97461.05
2018-05-13T07:23:44.968Z,97461.14
2018-05-13T07:26:12.245Z,97456.23
2018-05-13T07:28:39.865Z,97468.06
2018-05-13T07:31:06.960Z,97460.78
2018-05-13T07:33:33.991Z,97458.61
2018-05-13T07:36:01.018Z,97462.09
2018-05-13T07:38:28.079Z,97460.31
2018-05-13T07:40:55.664Z,97464.60
2018-05-13T07:43:22.731Z,97468.48
2018-05-13T07:45:49.817Z,97450.81
2018-05-13T07:48:16.882Z,97455.33
2018-05-13T07:50:44.057Z,97454.81
2018-05-13T07:53:11.347Z,97453.15
2018-05-13T07:55:38.428Z,97454.42
2018-05-13T07:58:05.453Z,97450.83
2018-05-13T08:00:32.686Z,97459.45
2018-05-13T08:02:59.798Z,97458.25
2018-05-13T08:05:26.933Z,97458.38
2018-05-13T08:07:54.096Z,97454.81
2018-05-13T08:10:21.143Z,97454.22
2018-05-13T08:12:48.421Z,97455.20
2018-05-13T08:15:15.678Z,97451.52
2018-05-13T08:17:42.856Z,97448.53
2018-05-13T08:20:10.017Z,97448.09
2018-05-13T08:22:37.276Z,97447.72
2018-05-13T08:25:04.335Z,97450.05
2018-05-13T08:27:31.363Z,97452.96
2018-05-13T08:29:58.463Z,97451.84
2018-05-13T08:32:25.657Z,97459.60
2018-05-13T08:34:52.764Z,97452.08
2018-05-13T08:37:19.953Z,97446.07
2018-05-13T08:39:47.069Z,97447.49
2018-05-13T08:42:14.185Z,97444.36
2018-05-13T08:44:41.324Z,97446.42
2018-05-13T08:47:08.458Z,97442.89
2018-05-13T08:49:35.560Z,97441.44
2018-05-13T08:52:02.655Z,97444.02
2018-05-13T08:54:30.239Z,97437.40
2018-05-13T08:56:57.384Z,97437.63
2018-05-13T08:59:24.432Z,97440.16
2018-05-13T09:01:52.074Z,97436.39
2018-05-13T09:04:19.372Z,97440.55
2018-05-13T09:06:46.549Z,97433.53
2018-05-13T09:09:13.640Z,97438.88
2018-05-13T09:11:40.712Z,97434.28
2018-05-13T09:14:07.922Z,97434.93
2018-05-13T09:16:36.008Z,97437.28
2018-05-13T09:19:03.117Z,97443.91
2018-05-13T09:21:30.483Z,97446.58
2018-05-13T09:23:57.753Z,97445.05
2018-05-13T09:26:24.837Z,97440.73
2018-05-13T09:28:51.978Z,97444.12
2018-05-13T09:31:19.251Z,97439.23
2018-05-13T09:33:46.307Z,97438.95
2018-05-13T09:36:13.448Z,97441.42
2018-05-13T09:38:41.363Z,97444.64
2018-05-13T09:41:08.424Z,97444.94
2018-05-13T09:43:35.508Z,97443.47
2018-05-13T09:46:02.763Z,97444.42
2018-05-13T09:48:29.820Z,97439.90
2018-05-13T09:50:56.959Z,97434.77
2018-05-13T09:53:24.002Z,97440.44
2018-05-13T09:55:51.052Z,97435.75
2018-05-13T09:58:18.239Z,97431.51
2018-05-13T10:00:45.367Z,97431.47
2018-05-13T10:03:12.479Z,97431.02
2018-05-13T10:05:39.579Z,97429.68
2018-05-13T10:08:06.901Z,97432.52
2018-05-13T10:10:34.181Z,97430.20
2018-05-13T10:13:01.247Z,97430.20
2018-05-13T10:15:28.514Z,97426.56
2018-05-13T10:17:55.614Z,97426.59
2018-05-13T10:20:22.684Z,97436.51
2018-05-13T10:22:49.853Z,97431.41
2018-05-13T10:25:16.942Z,97435.83
2018-05-13T10:27:44.029Z,97435.71
2018-05-13T10:30:11.404Z,97431.83
2018-05-13T10:32:38.611Z,97445.39
2018-05-13T10:35:05.690Z,97444.72
2018-05-13T10:37:32.907Z,97440.37
2018-05-13T10:40:00.023Z,97441.34
2018-05-13T10:42:27.262Z,97441.44
2018-05-13T10:44:54.358Z,97437.97
2018-05-13T10:47:21.464Z,97435.18
2018-05-13T10:49:48.499Z,97438.58
2018-05-13T10:52:15.693Z,97435.78
2018-05-13T10:54:42.803Z,97437.08
2018-05-13T10:57:09.910Z,97435.45
2018-05-13T10:59:36.942Z,97440.64
2018-05-13T11:02:04.097Z,97436.73
2018-05-13T11:04:31.137Z,97424.98
2018-05-13T11:06:58.417Z,97429.20
2018-05-13T11:09:25.602Z,97426.95
2018-05-13T11:11:52.679Z,97417.23
2018-05-13T11:14:19.741Z,97421.65
2018-05-13T11:16:47.010Z,97416.87
2018-05-13T11:19:14.127Z,97416.67
2018-05-13T11:21:41.251Z,97418.96
2018-05-13T11:24:08.985Z,97415.70
2018-05-13T11:26:36.119Z,97405.66
2018-05-13T11:29:03.194Z,97409.05
2018-05-13T11:31:30.268Z,97404.99
2018-05-13T11:33:57.335Z,97410.75
2018-05-13T11:36:24.362Z,97401.97
2018-05-13T11:38:51.398Z,97403.33
2018-05-13T11:41:18.514Z,97397.88
2018-05-13T11:43:45.585Z,97396.29
2018-05-13T11:46:12.749Z,97398.45
2018-05-13T11:48:40.204Z,97394.14
2018-05-13T11:51:07.310Z,97391.56
2018-05-13T11:53:34.511Z,97389.98
2018-05-13T11:56:01.654Z,97384.12
2018-05-13T11:58:28.709Z,97379.52
2018-05-13T12:00:56.327Z,97380.81
2018-05-13T12:03:24.857Z,97375.98
2018-05-13T12:05:52.535Z,97368.83
2018-05-13T12:08:20.025Z,97371.56
2018-05-13T12:10:47.706Z,97370.13
2018-05-13T12:13:15.400Z,97367.51
2018-05-13T12:15:44.039Z,97366.23
2018-05-13T12:18:11.637Z,97366.59
2018-05-13T12:20:39.142Z,97360.88
2018-05-13T12:23:06.616Z,97359.26
2018-05-13T12:25:34.133Z,97359.93
2018-05-13T12:28:01.606Z,97353.03
2018-05-13T12:30:29.410Z,97352.07
2018-05-13T12:32:57.002Z,97353.19
2018-05-13T12:35:24.504Z,97351.31
2018-05-13T12:37:52.198Z,97346.81
2018-05-13T12:40:19.675Z,97343.44
2018-05-13T12:42:47.216Z,97340.23
2018-05-13T12:45:15.309Z,97336.52
2018-05-13T12:47:42.901Z,97333.83
2018-05-13T12:50:10.499Z,97336.25
2018-05-13T12:52:38.110Z,97330.33
2018-05-13T12:55:05.183Z,97329.95
2018-05-13T12:57:32.699Z,97330.12
2018-05-13T13:00:00.279Z,97320.67
2018-05-13T13:02:27.926Z,97316.97
2018-05-13T13:04:55.605Z,97314.31
2018-05-13T13:07:23.495Z,97312.08
2018-05-13T13:09:50.984Z,97304.27
2018-05-13T13:12:18.734Z,97300.47
2018-05-13T13:14:46.223Z,97296.84
2018-05-13T13:17:13.979Z,97296.00
2018-05-13T13:19:41.595Z,97286.84
2018-05-13T13:22:09.180Z,97285.77
2018-05-13T13:24:36.603Z,97284.71
2018-05-13T13:27:04.343Z,97280.59
2018-05-13T13:29:31.824Z,97280.30
2018-05-13T13:31:59.311Z,97272.61
2018-05-13T13:34:27.446Z,97266.48
2018-05-13T13:36:55.105Z,97262.38
2018-05-13T13:39:22.590Z,97260.44
2018-05-13T13:41:50.084Z,97259.93
2018-05-13T13:44:17.700Z,97257.90
2018-05-13T13:46:45.386Z,97257.66
2018-05-13T13:49:13.464Z,97260.64
2018-05-13T13:51:41.115Z,97248.87
2018-05-13T13:54:08.670Z,97249.86
2018-05-13T13:56:36.238Z,97254.89
2018-05-13T13:59:03.958Z,97249.86
2018-05-13T14:01:31.474Z,97256.66
2018-05-13T14:03:59.238Z,97251.48
2018-05-13T14:06:26.821Z,97253.50
2018-05-13T14:08:54.441Z,97252.72
2018-05-13T14:11:21.940Z,97264.78
2018-05-13T14:13:49.500Z,97258.55
2018-05-13T14:16:17.275Z,97251.15
2018-05-13T14:18:44.753Z,97250.09
2018-05-13T14:21:12.305Z,97248.26
2018-05-13T14:23:40.738Z,97244.59
2018-05-13T14:26:08.200Z,97244.50
2018-05-13T14:28:35.799Z,97255.94
2018-05-13T14:31:03.333Z,97243.92
2018-05-13T14:33:30.450Z,97250.58
2018-05-13T14:35:57.556Z,97255.93
2018-05-13T14:38:24.629Z,97263.04
2018-05-13T14:40:51.730Z,97258.53
2018-05-13T14:43:20.275Z,97254.56
2018-05-13T14:45:47.371Z,97248.25
2018-05-13T14:48:14.505Z,97248.45
2018-05-13T14:50:42.280Z,97249.83
2018-05-13T14:53:09.816Z,97249.66
2018-05-13T14:55:37.382Z,97241.60
2018-05-13T14:58:04.505Z,97239.63
2018-05-13T15:00:31.545Z,97238.43
2018-05-13T15:02:59.120Z,97234.47
2018-05-13T15:05:26.655Z,97233.29
2018-05-13T15:07:53.919Z,97231.16
2018-05-13T15:10:21.970Z,97230.75
2018-05-13T15:12:49.183Z,97230.16
2018-05-13T15:15:16.855Z,97239.02
2018-05-13T15:17:44.229Z,97233.30
2018-05-13T15:20:11.700Z,97228.98
2018-05-13T15:22:38.848Z,97233.16
2018-05-13T15:25:06.370Z,97237.88
2018-05-13T15:27:33.911Z,97237.07
2018-05-13T15:30:01.616Z,97239.03
2018-05-13T15:32:29.979Z,97235.88
2018-05-13T15:34:57.544Z,97236.86
2018-05-13T15:37:25.146Z,97241.77
2018-05-13T15:39:52.646Z,97242.91
2018-05-13T15:42:20.180Z,97239.38
2018-05-13T15:44:47.314Z,97241.23
2018-05-13T15:47:14.933Z,97238.20
2018-05-13T15:49:42.454Z,97234.91
2018-05-13T15:52:10.240Z,97229.41
2018-05-13T15:54:37.349Z,97232.38
2018-05-13T15:57:04.374Z,97229.02
2018-05-13T15:59:32.659Z,97225.66
2018-05-13T16:02:00.220Z,97230.11
2018-05-13T16:04:27.735Z,97237.38
2018-05-13T16:06:55.359Z,97236.80
2018-05-13T16:09:23.006Z,97236.23
2018-05-13T16:11:52.065Z,97238.36
2018-05-13T16:14:19.680Z,97230.62
2018-05-13T16:16:46.789Z,97228.69
2018-05-13T16:19:13.940Z,97233.28
2018-05-13T16:21:40.996Z,97240.99
2018-05-13T16:24:08.650Z,97231.88
2018-05-13T16:26:35.834Z,97230.44
2018-05-13T16:29:03.533Z,97226.52
2018-05-13T16:31:30.808Z,97217.53
2018-05-13T16:33:58.490Z,97226.84
2018-05-13T16:36:25.988Z,97221.38
2018-05-13T16:38:53.379Z,97217.73
2018-05-13T16:41:21.146Z,97212.88
2018-05-13T16:43:48.284Z,97208.55
2018-05-13T16:46:15.453Z,97216.09
2018-05-13T16:48:42.470Z,97218.16
2018-05-13T16:51:09.550Z,97218.97
2018-05-13T16:53:36.626Z,97211.27
2018-05-13T16:56:03.780Z,97209.30
2018-05-13T16:58:30.803Z,97203.21
2018-05-13T17:00:57.960Z,97208.20
2018-05-13T17:03:24.980Z,97203.98
2018-05-13T17:05:52.000Z,97204.14
2018-05-13T17:08:19.048Z,97199.48
2018-05-13T17:10:46.205Z,97193.40
2018-05-13T17:13:13.355Z,97197.52
2018-05-13T17:15:40.560Z,97199.47
2018-05-13T17:18:07.814Z,97192.44
2018-05-13T17:20:34.925Z,97187.52
2018-05-13T17:23:02.166Z,97179.97
2018-05-13T17:25:29.379Z,97172.66
2018-05-13T17:27:57.560Z,97175.70
2018-05-13T17:30:24.817Z,97174.33
2018-05-13T17:32:51.905Z,97173.63
2018-05-13T17:35:18.981Z,97174.38
2018-05-13T17:37:46.270Z,97179.64
2018-05-13T17:40:13.657Z,97187.70
2018-05-13T17:42:40.781Z,97193.72
2018-05-13T17:45:08.028Z,97201.03
2018-05-13T17:47:35.102Z,97207.20
2018-05-13T17:50:02.286Z,97204.73
2018-05-13T17:52:29.367Z,97204.64
2018-05-13T17:54:56.426Z,97202.47
2018-05-13T17:57:23.522Z,97209.19
2018-05-13T17:59:50.553Z,97207.86
2018-05-13T18:02:17.708Z,97208.40
2018-05-13T18:04:44.807Z,97204.11
2018-05-13T18:07:12.106Z,97204.66
2018-05-13T18:09:39.285Z,97205.89
2018-05-13T18:12:06.467Z,97200.75
2018-05-13T18:14:33.508Z,97196.77
2018-05-13T18:17:00.592Z,97194.02
2018-05-13T18:19:27.727Z,97201.28
2018-05-13T18:21:55.143Z,97202.67
2018-05-13T18:24:22.181Z,97205.78
2018-05-13T18:26:49.255Z,97207.39
2018-05-13T18:29:16.327Z,97210.56
2018-05-13T18:31:43.482Z,97214.57
2018-05-13T18:34:10.543Z,97222.63
2018-05-13T18:36:37.898Z,97221.98
2018-05-13T18:39:05.047Z,97219.30
2018-05-13T18:41:32.128Z,97221.74
2018-05-13T18:43:59.203Z,97223.41
2018-05-13T18:46:26.301Z,97225.25
2018-05-13T18:48:53.506Z,97226.05
2018-05-13T18:51:20.661Z,97223.94
2018-05-13T18:53:48.002Z,97218.31
2018-05-13T18:56:15.116Z,97219.10
2018-05-13T18:58:42.345Z,97218.78
2018-05-13T19:01:09.572Z,97220.44
2018-05-13T19:03:36.720Z,97224.00
2018-05-13T19:06:03.907Z,97224.27
2018-05-13T19:08:31.018Z,97229.97
2018-05-13T19:10:58.195Z,97228.52
2018-05-13T19:13:25.233Z,97224.23
2018-05-13T19:15:52.344Z,97228.81
2018-05-13T19:18:19.590Z,97224.24
2018-05-13T19:20:46.793Z,97225.16
2018-05-13T19:23:15.414Z,97233.25
2018-05-13T19:25:42.603Z,97227.92
2018-05-13T19:28:09.611Z,97238.48
2018-05-13T19:30:37.398Z,97231.12
2018-05-13T19:33:04.582Z,97234.01
2018-05-13T19:35:31.663Z,97235.02
2018-05-13T19:37:58.737Z,97242.39
2018-05-13T19:40:25.993Z,97241.24
2018-05-13T19:42:53.056Z,97239.84
2018-05-13T19:45:20.177Z,97243.25
2018-05-13T19:47:47.246Z,97237.09
2018-05-13T19:50:14.311Z,97238.41
2018-05-13T19:52:41.425Z,97235.45
2018-05-13T19:55:08.588Z,97239.38
2018-05-13T19:57:35.722Z,97238.09
2018-05-13T20:00:03.084Z,97249.57
2018-05-13T20:02:30.246Z,97252.09
2018-05-13T20:04:57.486Z,97249.97
2018-05-13T20:07:24.604Z,97252.10
2018-05-13T20:09:52.095Z,97250.98
2018-05-13T20:12:19.160Z,97246.84
2018-05-13T20:14:46.257Z,97243.28
2018-05-13T20:17:13.407Z,97245.41
2018-05-13T20:19:41.578Z,97248.05
2018-05-13T20:22:08.691Z,97233.52
2018-05-13T20:24:35.812Z,97242.32
2018-05-13T20:27:03.002Z,97243.31
2018-05-13T20:29:30.228Z,97241.81
2018-05-13T20:31:57.262Z,97236.20
2018-05-13T20:34:24.353Z,97239.61
2018-05-13T20:36:51.572Z,97244.53
2018-05-13T20:39:18.622Z,97244.95
2018-05-13T20:41:45.821Z,97242.08
2018-05-13T20:44:12.912Z,97238.20
2018-05-13T20:46:40.136Z,97238.48
2018-05-13T20:49:07.223Z,97246.06
2018-05-13T20:51:34.261Z,97243.64
2018-05-13T20:54:01.367Z,97246.12
2018-05-13T20:56:28.548Z,97243.77
2018-05-13T20:58:55.595Z,97239.94
2018-05-13T21:01:22.643Z,97233.65
2018-05-13T21:03:50.627Z,97225.95
2018-05-13T21:06:17.730Z,97220.05
2018-05-13T21:08:44.791Z,97215.45
2018-05-13T21:11:11.881Z,97211.25
2018-05-13T21:13:38.932Z,97212.61
2018-05-13T21:16:06.114Z,97212.22
2018-05-13T21:18:33.168Z,97216.86
2018-05-13T21:21:00.247Z,97223.35
2018-05-13T21:23:27.378Z,97220.96
2018-05-13T21:25:54.761Z,97221.64
2018-05-13T21:28:21.809Z,97221.45
2018-05-13T21:30:48.953Z,97229.57
2018-05-13T21:33:15.996Z,97240.70
2018-05-13T21:35:43.094Z,97244.46
2018-05-13T21:38:10.261Z,97247.47
2018-05-13T21:40:37.287Z,97251.50
2018-05-13T21:43:04.801Z,97252.55
2018-05-13T21:45:31.918Z,97250.96
2018-05-13T21:47:59.038Z,97236.86
2018-05-13T21:50:26.069Z,97232.43
2018-05-13T21:52:53.142Z,97232.13
2018-05-13T21:55:20.358Z,97237.61
2018-05-13T21:57:47.383Z,97242.09
2018-05-13T22:00:14.477Z,97235.86
2018-05-13T22:02:41.536Z,97227.58
2018-05-13T22:05:08.596Z,97232.38
2018-05-13T22:07:35.683Z,97231.49
2018-05-13T22:10:02.727Z,97223.73
2018-05-13T22:12:29.771Z,97229.28
2018-05-13T22:14:56.810Z,97222.99
2018-05-13T22:17:23.885Z,97221.30
2018-05-13T22:19:51.193Z,97213.32
2018-05-13T22:22:18.407Z,97215.36
2018-05-13T22:24:45.461Z,97208.56
2018-05-13T22:27:12.449Z,97212.45
2018-05-13T22:29:39.477Z,97208.78
2018-05-13T22:32:06.588Z,97210.45
2018-05-13T22:34:33.602Z,97210.02
2018-05-13T22:37:00.611Z,97223.46
2018-05-13T22:39:27.743Z,97213.88
2018-05-13T22:41:54.824Z,97215.06
2018-05-13T22:44:21.833Z,97217.84
2018-05-13T22:46:49.238Z,97220.69
2018-05-13T22:49:16.337Z,97220.05
2018-05-13T22:51:43.492Z,97222.81
2018-05-13T22:54:10.552Z,97224.11
2018-05-13T22:56:37.582Z,97222.70
2018-05-13T22:59:04.658Z,97221.00
2018-05-13T23:01:31.658Z,97218.58
2018-05-13T23:03:58.721Z,97224.75
2018-05-13T23:06:26.403Z,97227.73
2018-05-13T23:08:53.431Z,97223.05
2018-05-13T23:11:20.467Z,97224.88
2018-05-13T23:13:47.555Z,97224.75
2018-05-13T23:16:14.746Z,97225.94
2018-05-13T23:18:41.769Z,97229.27
2018-05-13T23:21:08.881Z,97218.70
2018-05-13T23:23:35.969Z,97217.78
2018-05-13T23:26:03.019Z,97216.64
2018-05-13T23:28:30.077Z,97217.34
2018-05-13T23:30:57.072Z,97211.15
2018-05-13T23:33:24.214Z,97213.20
2018-05-13T23:35:51.412Z,97225.30
2018-05-13T23:38:18.444Z,97217.84
2018-05-13T23:40:45.479Z,97217.95
2018-05-13T23:43:12.543Z,97219.35
2018-05-13T23:45:39.914Z,97215.84
2018-05-13T23:48:06.917Z,97220.03
2018-05-13T23:50:33.903Z,97217.97
2018-05-13T23:53:01.142Z,97220.03
2018-05-13T23:55:28.187Z,97207.44
2018-05-13T23:57:55.236Z,97206.84
